createdAt,value
2023-03-05T00:01:43.334Z,20.02
2023-03-05T00:06:56.724Z,18.52
2023-03-05T00:12:02.170Z,13.85
2023-03-05T00:17:06.412Z,13.13
2023-03-05T00:22:10.683Z,12.23
2023-03-05T00:27:16.203Z,14.23
2023-03-05T00:32:20.392Z,13.77
2023-03-05T00:37:24.993Z,14.80
2023-03-05T00:42:30.552Z,11.18
2023-03-05T00:47:34.764Z,12.02
2023-03-05T00:52:39.207Z,12.10
2023-03-05T00:57:46.813Z,25.38
2023-03-05T01:02:50.905Z,20.10
2023-03-05T01:07:55.500Z,16.52
2023-03-05T01:13:01.284Z,15.02
2023-03-05T01:18:05.489Z,14.15
2023-03-05T01:23:09.942Z,12.57
2023-03-05T01:28:15.444Z,11.70
2023-03-05T01:33:19.909Z,11.40
2023-03-05T01:38:24.030Z,9.55
2023-03-05T01:43:32.078Z,8.63
2023-03-05T01:48:36.910Z,9.40
2023-03-05T01:53:43.833Z,10.18
2023-03-05T01:58:51.462Z,11.68
2023-03-05T02:03:55.696Z,13.95
2023-03-05T02:09:01.354Z,13.88
2023-03-05T02:14:10.138Z,14.55
2023-03-05T02:19:15.862Z,13.15
2023-03-05T02:24:36.556Z,14.88
2023-03-05T02:29:44.080Z,12.60
2023-03-05T02:34:48.183Z,14.90
2023-03-05T02:39:54.591Z,14.55
2023-03-05T02:44:59.544Z,14.15
2023-03-05T02:50:05.068Z,13.63
2023-03-05T02:55:11.750Z,12.93
2023-03-05T03:00:18.346Z,13.07
2023-03-05T03:05:22.732Z,11.90
2023-03-05T03:10:30.259Z,11.73
2023-03-05T03:15:34.894Z,12.88
2023-03-05T03:20:40.030Z,14.32
2023-03-05T03:25:46.012Z,18.77
2023-03-05T03:30:50.269Z,16.50
2023-03-05T03:35:54.406Z,14.32
2023-03-05T03:40:59.925Z,12.65
2023-03-05T03:46:06.263Z,11.07
2023-03-05T03:51:10.736Z,10.52
2023-03-05T03:56:16.280Z,10.13
2023-03-05T04:01:20.714Z,9.73
2023-03-05T04:06:25.871Z,8.70
2023-03-05T04:11:31.253Z,9.60
2023-03-05T04:16:36.643Z,10.32
2023-03-05T04:21:41.522Z,8.98
2023-03-05T04:26:47.558Z,10.20
2023-03-05T04:31:51.644Z,11.63
2023-03-05T04:36:56.552Z,11.65
2023-03-05T04:42:02.715Z,12.32
2023-03-05T04:47:07.182Z,13.45
2023-03-05T04:52:13.549Z,25.98
2023-03-05T04:57:19.531Z,17.73
2023-03-05T05:02:24.213Z,16.88
2023-03-05T05:07:29.929Z,17.00
2023-03-05T05:12:39.308Z,15.55
2023-03-05T05:22:47.255Z,17.85
2023-03-05T05:27:53.126Z,19.33
2023-03-05T05:32:58.457Z,26.90
2023-03-05T05:38:05.016Z,30.48
2023-03-05T05:43:10.982Z,32.63
2023-03-05T05:48:15.102Z,43.25
2023-03-05T05:53:19.152Z,26.90
2023-03-05T05:58:26.671Z,21.85
2023-03-05T06:03:30.743Z,19.48
2023-03-05T06:08:35.070Z,21.90
2023-03-05T06:13:41.151Z,21.30
2023-03-05T06:18:45.724Z,20.52
2023-03-05T06:23:51.572Z,25.20
2023-03-05T06:28:57.707Z,23.17
2023-03-05T06:34:02.563Z,29.88
2023-03-05T06:39:07.447Z,24.75
2023-03-05T06:44:14.215Z,21.35
2023-03-05T06:49:20.580Z,27.52
2023-03-05T06:54:24.811Z,29.27
2023-03-05T06:59:30.285Z,22.05
2023-03-05T07:04:34.403Z,21.35
2023-03-05T07:09:43.184Z,20.75
2023-03-05T07:14:55.719Z,20.37
2023-03-05T07:19:59.977Z,17.10
2023-03-05T07:25:04.594Z,19.65
2023-03-05T07:30:11.880Z,22.40
2023-03-05T07:35:18.463Z,20.20
2023-03-05T07:40:23.101Z,18.42
2023-03-05T07:45:28.639Z,17.77
2023-03-05T07:50:33.414Z,18.85
2023-03-05T07:55:44.355Z,18.25
2023-03-05T08:00:50.546Z,18.42
2023-03-05T08:05:55.097Z,17.75
2023-03-05T08:11:05.318Z,17.25
2023-03-05T08:16:15.835Z,17.02
2023-03-05T08:21:48.266Z,15.57
2023-03-05T08:27:05.780Z,15.65
2023-03-05T08:32:15.804Z,16.23
2023-03-05T08:37:25.192Z,15.13
2023-03-05T08:42:31.289Z,14.48
2023-03-05T08:47:41.606Z,15.02
2023-03-05T08:52:46.147Z,14.90
2023-03-05T08:57:50.747Z,23.85
2023-03-05T09:03:11.019Z,14.73
2023-03-05T09:08:24.484Z,7.53
2023-03-05T09:13:35.011Z,8.65
2023-03-05T09:18:44.696Z,10.13
2023-03-05T09:23:49.122Z,12.57
2023-03-05T09:28:54.924Z,12.70
2023-03-05T09:34:01.139Z,11.10
2023-03-05T09:39:17.058Z,11.30
2023-03-05T09:44:34.311Z,14.20
2023-03-05T09:49:52.474Z,9.45
2023-03-05T09:54:59.796Z,15.10
2023-03-05T10:00:09.656Z,13.15
2023-03-05T10:05:22.334Z,9.57
2023-03-05T10:10:32.994Z,11.18
2023-03-05T10:15:50.578Z,9.68
2023-03-05T10:21:02.777Z,10.85
2023-03-05T10:26:37.665Z,10.05
2023-03-05T10:31:58.761Z,9.98
2023-03-05T10:37:32.106Z,10.50
2023-03-05T10:42:48.427Z,9.98
2023-03-05T10:48:03.146Z,8.65
2023-03-05T10:53:18.198Z,9.93
2023-03-05T10:58:24.631Z,7.97
2023-03-05T11:03:49.022Z,7.05
2023-03-05T11:08:55.772Z,8.55
2023-03-05T11:14:02.555Z,8.23
2023-03-05T11:19:19.453Z,10.90
2023-03-05T11:24:25.410Z,9.73
2023-03-05T11:29:32.453Z,8.88
2023-03-05T11:34:36.656Z,7.80
2023-03-05T11:39:42.865Z,8.25
2023-03-05T11:44:50.638Z,9.57
2023-03-05T11:50:03.094Z,7.13
2023-03-05T11:55:16.032Z,7.60
2023-03-05T12:00:26.384Z,6.72
2023-03-05T12:05:32.500Z,9.02
2023-03-05T12:10:37.922Z,6.65
2023-03-05T12:16:02.059Z,7.50
2023-03-05T12:21:09.762Z,7.72
2023-03-05T12:26:16.298Z,7.53
2023-03-05T12:31:37.976Z,6.88
2023-03-05T12:36:43.727Z,6.13
2023-03-05T12:41:50.047Z,6.22
2023-03-05T12:47:23.900Z,6.25
2023-03-05T12:52:31.094Z,6.40
2023-03-05T12:57:41.101Z,7.18
2023-03-05T13:02:49.631Z,10.38
2023-03-05T13:07:54.014Z,10.17
2023-03-05T13:12:59.736Z,7.55
2023-03-05T13:18:08.788Z,6.28
2023-03-05T13:23:21.101Z,8.02
2023-03-05T13:28:27.524Z,7.28
2023-03-05T13:33:34.546Z,6.55
2023-03-05T13:38:45.172Z,7.38
2023-03-05T13:43:53.684Z,7.63
2023-03-05T13:49:18.942Z,5.63
2023-03-05T13:54:24.620Z,6.30
2023-03-05T13:59:32.954Z,6.43
2023-03-05T14:04:39.543Z,7.07
2023-03-05T14:09:50.621Z,6.20
2023-03-05T14:14:59.404Z,6.20
2023-03-05T14:20:25.011Z,5.50
2023-03-05T14:25:39.796Z,10.65
2023-03-05T14:30:48.769Z,11.35
2023-03-05T14:35:54.057Z,8.68
2023-03-05T14:40:58.632Z,8.73
2023-03-05T14:46:05.997Z,9.00
2023-03-05T14:51:12.975Z,12.95
2023-03-05T14:56:23.822Z,14.23
2023-03-05T15:01:29.702Z,11.25
2023-03-05T15:06:38.203Z,11.13
2023-03-05T15:11:42.505Z,14.23
2023-03-05T15:16:51.496Z,10.88
2023-03-05T15:21:55.784Z,16.98
2023-03-05T15:26:59.916Z,18.67
2023-03-05T15:32:07.735Z,14.48
2023-03-05T15:37:12.740Z,17.33
2023-03-05T15:42:17.474Z,11.80
2023-03-05T15:47:23.023Z,13.10
2023-03-05T15:52:28.843Z,13.52
2023-03-05T15:57:37.831Z,11.32
2023-03-05T16:02:44.062Z,9.48
2023-03-05T16:07:51.819Z,8.63
2023-03-05T16:12:59.055Z,11.90
2023-03-05T16:18:09.521Z,21.27
2023-03-05T16:23:13.827Z,9.98
2023-03-05T16:28:17.876Z,18.48
2023-03-05T16:33:23.702Z,16.30
2023-03-05T16:38:28.155Z,12.50
2023-03-05T16:43:32.353Z,12.30
2023-03-05T16:48:38.898Z,11.60
2023-03-05T16:53:43.854Z,12.85
2023-03-05T16:58:51.399Z,12.10
2023-03-05T17:04:02.253Z,13.20
2023-03-05T17:09:07.559Z,13.00
2023-03-05T17:14:11.678Z,12.63
2023-03-05T17:19:17.163Z,14.60
2023-03-05T17:24:22.726Z,12.48
2023-03-05T17:29:27.423Z,11.07
2023-03-05T17:34:36.932Z,14.88
2023-03-05T17:39:42.391Z,12.10
2023-03-05T17:50:01.083Z,11.27
2023-03-05T17:55:09.166Z,10.37
2023-03-05T18:00:16.259Z,9.15
2023-03-05T18:05:24.603Z,10.50
2023-03-05T18:10:33.816Z,10.40
2023-03-05T18:15:41.898Z,9.55
2023-03-05T18:20:48.857Z,9.93
2023-03-05T18:25:54.834Z,8.90
2023-03-05T18:30:59.696Z,10.98
2023-03-05T18:36:06.693Z,13.45
2023-03-05T18:41:18.084Z,11.88
2023-03-05T18:46:23.074Z,12.75
2023-03-05T18:51:31.013Z,10.52
2023-03-05T18:56:36.822Z,9.38
2023-03-05T19:01:41.876Z,7.80
2023-03-05T19:06:49.834Z,8.32
2023-03-05T19:11:55.556Z,9.43
2023-03-05T19:17:00.414Z,9.23
2023-03-05T19:22:07.679Z,15.43
2023-03-05T19:27:14.601Z,11.60
2023-03-05T19:32:21.124Z,8.25
2023-03-05T19:37:26.801Z,7.38
2023-03-05T19:42:31.332Z,7.75
2023-03-05T19:47:35.661Z,9.15
2023-03-05T19:52:42.307Z,9.05
2023-03-05T19:57:46.652Z,9.48
2023-03-05T20:02:50.635Z,10.30
2023-03-05T20:07:56.399Z,11.60
2023-03-05T20:13:00.570Z,11.80
2023-03-05T20:18:05.196Z,11.57
2023-03-05T20:23:10.976Z,10.80
2023-03-05T20:28:15.310Z,10.43
2023-03-05T20:33:19.584Z,11.07
2023-03-05T20:38:26.499Z,9.55
2023-03-05T20:43:33.715Z,9.73
2023-03-05T20:48:38.251Z,11.05
2023-03-05T20:53:44.164Z,9.55
2023-03-05T20:58:49.115Z,9.25
2023-03-05T21:03:57.311Z,10.02
2023-03-05T21:09:05.661Z,5.77
2023-03-05T21:14:11.078Z,8.98
2023-03-05T21:19:15.494Z,8.93
2023-03-05T21:25:21.141Z,10.48
2023-03-05T21:30:31.716Z,10.32
2023-03-05T21:40:48.927Z,10.35
2023-03-05T21:45:55.003Z,9.68
2023-03-05T21:50:59.745Z,9.93
2023-03-05T21:56:28.416Z,10.02
2023-03-05T22:01:32.735Z,9.98
2023-03-05T22:06:37.183Z,9.57
2023-03-05T22:11:44.195Z,9.38
2023-03-05T22:16:52.208Z,10.02
2023-03-05T22:21:57.563Z,10.02
2023-03-05T22:27:03.417Z,10.80
2023-03-05T22:32:07.701Z,11.23
2023-03-05T22:37:11.779Z,13.60
2023-03-05T22:42:17.593Z,11.48
2023-03-05T22:47:23.133Z,11.55
2023-03-05T22:52:27.956Z,9.40
2023-03-05T22:57:37.723Z,11.75
2023-03-05T23:02:42.545Z,10.97
2023-03-05T23:07:47.489Z,13.25
2023-03-05T23:12:54.946Z,16.88
2023-03-05T23:18:00.259Z,19.10
2023-03-05T23:23:05.767Z,15.30
2023-03-05T23:28:11.212Z,13.73
2023-03-05T23:33:18.556Z,19.25
2023-03-05T23:38:24.698Z,18.40
2023-03-05T23:43:30.720Z,19.08
2023-03-05T23:48:35.115Z,15.75
2023-03-05T23:53:39.263Z,14.25
2023-03-05T23:58:45.365Z,14.85
